Time;durP1;ratioP1;P1;durP2;ratioP2;P2;SDS_P1;SDS_P2;PMS_P1;PMS_P2;Temp;Humidity;BMP_temperature;BMP_pressure;BME280_temperature;BME280_humidity;BME280_pressure;Samples;Min_cycle;Max_cycle;Signal;HPM_P1;HPM_P2
2022/03/26 00:00:50;;;;;;;38.65;11.60;;;;;;;8.51;66.04;99069.69;5002785;28;20591;-55
2022/03/26 00:03:16;;;;;;;40.60;12.60;;;;;;;8.56;63.45;99062.66;5007068;28;20030;-55
2022/03/26 00:05:43;;;;;;;46.15;13.82;;;;;;;8.48;62.97;99067.13;5004881;28;20575;-57
2022/03/26 00:08:10;;;;;;;33.72;11.35;;;;;;;8.48;69.63;99074.94;5008413;28;20182;-55
2022/03/26 00:10:36;;;;;;;34.38;9.82;;;;;;;8.53;70.56;99083.53;5005880;28;20042;-53
2022/03/26 00:13:03;;;;;;;38.92;10.88;;;;;;;8.56;71.27;99070.47;5006466;28;20022;-54
2022/03/26 00:15:28;;;;;;;35.28;10.75;;;;;;;8.54;73.08;99073.97;5002945;28;20097;-56
2022/03/26 00:17:54;;;;;;;33.58;10.18;;;;;;;8.59;70.97;99075.63;5003887;28;20124;-54
2022/03/26 00:20:20;;;;;;;30.25;9.20;;;;;;;8.68;82.01;99078.06;5008980;28;20022;-53
2022/03/26 00:22:45;;;;;;;41.03;11.23;;;;;;;8.54;76.40;99076.56;5005155;28;20175;-56
2022/03/26 00:25:13;;;;;;;35.63;10.32;;;;;;;8.38;72.43;99078.50;5010855;28;20782;-56
2022/03/26 00:27:38;;;;;;;28.95;9.40;;;;;;;8.34;80.63;99069.91;5005644;28;20697;-55
2022/03/26 00:30:05;;;;;;;34.85;10.38;;;;;;;8.44;72.61;99068.91;5005444;28;20768;-55
2022/03/26 00:32:31;;;;;;;30.33;10.02;;;;;;;8.39;82.71;99072.44;5006740;28;20574;-56
2022/03/26 00:34:57;;;;;;;48.50;11.88;;;;;;;8.57;85.27;99077.38;5003386;28;20037;-56
2022/03/26 00:37:23;;;;;;;35.80;10.32;;;;;;;8.26;74.64;99074.34;5004777;28;20034;-56
2022/03/26 00:39:48;;;;;;;40.60;13.02;;;;;;;8.14;68.92;99077.97;5011972;28;20123;-56
2022/03/26 00:42:15;;;;;;;34.88;11.00;;;;;;;8.22;76.56;99083.94;5001513;28;20038;-57
2022/03/26 00:44:40;;;;;;;34.92;11.07;;;;;;;8.14;73.07;99080.56;5002510;28;20349;-56
2022/03/26 00:47:06;;;;;;;39.65;11.18;;;;;;;8.17;76.24;99079.69;5007600;28;20044;-55
2022/03/26 00:49:32;;;;;;;29.52;8.73;;;;;;;8.26;79.95;99079.56;5010009;28;20035;-55
2022/03/26 00:51:57;;;;;;;33.83;10.30;;;;;;;8.28;76.14;99076.03;5001722;28;20034;-55
2022/03/26 00:54:23;;;;;;;31.98;9.93;;;;;;;8.25;79.24;99068.31;5003717;28;20026;-55
2022/03/26 00:56:48;;;;;;;42.00;11.55;;;;;;;8.24;77.67;99071.78;5005158;28;20125;-55
2022/03/26 00:59:14;;;;;;;39.40;11.40;;;;;;;8.23;80.35;99066.59;5005347;28;20100;-54
2022/03/26 01:01:39;;;;;;;42.65;11.75;;;;;;;8.27;75.43;99074.34;5006661;28;20443;-55
2022/03/26 01:04:04;;;;;;;48.15;12.63;;;;;;;8.13;74.49;99073.69;5008122;28;20052;-55
2022/03/26 01:06:30;;;;;;;32.38;10.07;;;;;;;8.21;81.68;99065.75;5002122;28;20125;-54
2022/03/26 01:08:56;;;;;;;42.08;10.88;;;;;;;8.07;78.79;99076.38;5005460;28;20863;-54
2022/03/26 01:11:21;;;;;;;45.35;12.57;;;;;;;8.28;84.44;99073.44;5004941;28;20045;-56
2022/03/26 01:13:48;;;;;;;40.33;12.80;;;;;;;8.09;72.37;99067.66;5003014;28;20038;-55
2022/03/26 01:16:14;;;;;;;41.85;11.75;;;;;;;7.95;68.94;99063.53;5005685;28;20513;-55
2022/03/26 01:18:40;;;;;;;42.60;12.45;;;;;;;7.69;70.40;99067.31;5004996;28;20034;-56
2022/03/26 01:21:06;;;;;;;46.25;13.05;;;;;;;7.74;69.46;99060.34;5004588;28;20034;-54
2022/03/26 01:23:31;;;;;;;43.83;11.82;;;;;;;7.76;71.89;99060.31;5005384;28;20026;-54
2022/03/26 01:25:58;;;;;;;37.10;11.95;;;;;;;7.65;70.19;99060.47;5006392;28;20042;-55
2022/03/26 01:28:24;;;;;;;44.15;12.57;;;;;;;7.69;73.59;99057.78;5001643;28;20738;-54
2022/03/26 01:30:49;;;;;;;37.55;11.13;;;;;;;7.75;74.58;99051.66;5003505;28;20512;-54
2022/03/26 01:33:14;;;;;;;36.53;11.00;;;;;;;7.75;77.61;99056.84;5004236;28;20041;-55
2022/03/26 01:35:40;;;;;;;41.25;12.52;;;;;;;7.51;70.96;99058.84;5007658;28;20908;-58
2022/03/26 01:38:06;;;;;;;40.25;11.55;;;;;;;7.64;73.18;99061.31;5006714;28;20411;-54
2022/03/26 01:40:35;;;;;;;46.97;11.48;;;;;;;7.79;81.35;99063.72;5003126;28;20115;-57
2022/03/26 01:43:00;;;;;;;37.38;11.77;;;;;;;7.60;77.45;99059.66;5003804;28;20021;-56
2022/03/26 01:45:27;;;;;;;42.08;12.07;;;;;;;7.55;70.53;99048.44;5008638;28;20037;-56
2022/03/26 01:47:54;;;;;;;35.22;10.82;;;;;;;7.51;75.58;99048.47;5004141;28;20037;-56
2022/03/26 01:50:19;;;;;;;37.83;11.20;;;;;;;7.59;78.82;99044.94;5002172;28;20033;-54
2022/03/26 01:52:45;;;;;;;41.72;11.95;;;;;;;7.64;78.13;99048.34;5002722;28;20414;-53
2022/03/26 01:55:10;;;;;;;38.90;10.52;;;;;;;7.63;83.76;99046.63;5006159;28;20060;-54
2022/03/26 01:57:36;;;;;;;37.28;10.18;;;;;;;7.65;85.41;99042.28;5001024;28;20639;-55
2022/03/26 02:00:03;;;;;;;39.53;12.02;;;;;;;7.65;87.69;99044.88;5000825;28;20116;-54
2022/03/26 02:02:29;;;;;;;36.75;12.02;;;;;;;7.60;82.16;99047.50;5004643;28;20040;-57
2022/03/26 02:04:54;;;;;;;54.17;13.13;;;;;;;7.49;78.56;99039.84;5005397;28;20444;-54
2022/03/26 02:07:19;;;;;;;42.13;12.50;;;;;;;7.33;76.79;99038.31;5007575;28;20545;-55
2022/03/26 02:09:45;;;;;;;49.30;12.48;;;;;;;7.37;82.66;99039.13;5006985;28;20096;-54
2022/03/26 02:12:27;;;;;;;39.92;11.95;;;;;;;7.25;79.07;99040.13;5005480;28;20045;-54
2022/03/26 02:14:54;;;;;;;50.53;12.50;;;;;;;7.29;86.70;99042.66;5004173;28;20044;-55
2022/03/26 02:17:19;;;;;;;37.20;12.15;;;;;;;7.24;88.84;99043.59;5004288;28;20451;-55
2022/03/26 02:19:49;;;;;;;43.35;12.55;;;;;;;7.19;88.02;99051.44;5005313;28;20018;-55
2022/03/26 02:22:15;;;;;;;39.53;12.35;;;;;;;7.01;87.72;99044.69;5006106;28;20053;-55
2022/03/26 02:24:40;;;;;;;48.45;13.13;;;;;;;7.27;85.65;99048.75;5008058;28;20034;-55
2022/03/26 02:27:07;;;;;;;33.38;11.40;;;;;;;7.48;99.51;99048.53;5004253;28;20042;-54
2022/03/26 02:29:32;;;;;;;34.47;11.30;;;;;;;7.25;91.41;99050.53;5007127;28;20517;-55
2022/03/26 02:31:58;;;;;;;38.33;12.35;;;;;;;7.21;90.17;99048.84;5003691;28;20041;-56
2022/03/26 02:34:24;;;;;;;31.65;9.80;;;;;;;7.12;95.29;99044.59;5003309;28;20050;-56
2022/03/26 02:36:53;;;;;;;31.77;11.65;;;;;;;7.22;94.88;99041.00;5006699;28;20086;-55
2022/03/26 02:39:19;;;;;;;38.80;12.98;;;;;;;7.04;91.28;99036.00;5005162;28;20033;-56
2022/03/26 02:41:45;;;;;;;44.67;13.18;;;;;;;6.87;87.89;99038.78;5004996;28;20037;-56
2022/03/26 02:44:10;;;;;;;34.45;11.98;;;;;;;7.07;94.07;99041.19;5003997;28;20080;-55
2022/03/26 02:46:38;;;;;;;37.85;11.75;;;;;;;7.11;100.00;99048.94;5005528;28;20339;-56
2022/03/26 02:49:04;;;;;;;36.13;11.77;;;;;;;7.07;100.00;99047.22;5003317;28;20922;-55
2022/03/26 02:51:29;;;;;;;32.22;10.65;;;;;;;7.11;100.00;99046.34;5001894;28;20075;-56
2022/03/26 02:53:54;;;;;;;33.03;11.68;;;;;;;7.18;100.00;99048.88;5004923;28;20025;-56
2022/03/26 02:56:20;;;;;;;30.75;10.57;;;;;;;7.19;100.00;99041.06;5005359;28;20037;-55
2022/03/26 02:58:47;;;;;;;35.00;11.60;;;;;;;7.16;100.00;99040.25;5003750;28;20399;-54
2022/03/26 03:01:13;;;;;;;32.40;10.52;;;;;;;7.19;100.00;99040.22;5006232;28;20041;-57
2022/03/26 03:03:38;;;;;;;37.30;12.32;;;;;;;7.11;100.00;99038.56;5004832;28;20041;-55
2022/03/26 03:06:04;;;;;;;40.47;11.88;;;;;;;6.98;100.00;99039.53;5008022;28;20033;-55
2022/03/26 03:08:29;;;;;;;25.42;8.38;;;;;;;7.17;100.00;99036.75;5008720;28;20642;-55
2022/03/26 03:10:54;;;;;;;22.17;7.63;;;;;;;7.49;100.00;99034.66;5007063;28;20057;-56
2022/03/26 03:13:22;;;;;;;25.80;8.18;;;;;;;7.59;100.00;99035.44;5010407;28;20018;-56
2022/03/26 03:15:50;;;;;;;39.40;13.38;;;;;;;7.21;100.00;99043.66;5005779;28;20038;-55
2022/03/26 03:18:16;;;;;;;32.17;9.50;;;;;;;7.24;100.00;99038.41;5009474;28;20029;-55
2022/03/26 03:20:41;;;;;;;34.20;11.70;;;;;;;6.92;100.00;99037.00;5008112;28;20034;-56
2022/03/26 03:23:07;;;;;;;23.52;8.38;;;;;;;7.40;100.00;99045.16;5007818;28;20434;-56
2022/03/26 03:25:33;;;;;;;34.92;12.23;;;;;;;7.06;100.00;99042.94;5005150;28;20613;-58
2022/03/26 03:27:58;;;;;;;27.55;9.30;;;;;;;7.39;100.00;99039.97;5004203;28;20029;-55
2022/03/26 03:30:25;;;;;;;25.90;7.72;;;;;;;7.21;100.00;99044.50;5005791;28;20041;-55
2022/03/26 03:32:50;;;;;;;26.75;8.00;;;;;;;7.64;100.00;99049.19;5006169;28;20026;-55
2022/03/26 03:35:16;;;;;;;23.25;7.93;;;;;;;7.47;100.00;99044.19;5003136;28;20038;-56
2022/03/26 03:37:41;;;;;;;23.08;7.97;;;;;;;7.50;100.00;99041.59;5007279;28;20244;-56
2022/03/26 03:40:08;;;;;;;26.25;8.35;;;;;;;7.08;100.00;99042.91;5007113;28;20041;-55
2022/03/26 03:42:34;;;;;;;30.05;8.70;;;;;;;7.30;100.00;99035.75;5004580;28;20029;-56
2022/03/26 03:44:59;;;;;;;31.13;10.20;;;;;;;7.39;100.00;99035.66;5004027;28;20442;-54
2022/03/26 03:47:25;;;;;;;27.02;7.95;;;;;;;7.36;100.00;99038.28;5005566;28;20085;-57
2022/03/26 03:49:51;;;;;;;23.73;8.02;;;;;;;7.18;100.00;99038.47;5008328;28;20038;-55
2022/03/26 03:52:17;;;;;;;21.65;7.57;;;;;;;7.10;100.00;99042.00;5007282;28;20045;-55
2022/03/26 03:54:42;;;;;;;31.30;9.13;;;;;;;7.19;100.00;99035.03;5008349;28;20061;-54
2022/03/26 03:57:07;;;;;;;21.65;7.53;;;;;;;7.28;100.00;99032.34;5008130;28;20475;-55
2022/03/26 03:59:33;;;;;;;26.15;8.48;;;;;;;7.36;100.00;99038.28;5008824;28;20112;-54
2022/03/26 04:01:58;;;;;;;25.27;8.30;;;;;;;7.65;100.00;99039.69;5007998;28;20122;-56
2022/03/26 04:04:23;;;;;;;29.20;10.15;;;;;;;7.22;100.00;99040.16;5006158;28;20026;-55
2022/03/26 04:06:48;;;;;;;24.85;7.70;;;;;;;7.20;100.00;99037.56;5003689;28;20088;-56
2022/03/26 04:09:14;;;;;;;21.52;7.30;;;;;;;7.26;100.00;99042.72;5008985;28;20030;-56
2022/03/26 04:11:40;;;;;;;36.42;12.95;;;;;;;6.81;100.00;99044.03;5006502;28;20037;-54
2022/03/26 04:14:06;;;;;;;29.42;10.60;;;;;;;6.57;100.00;99044.22;5005238;28;20034;-56
2022/03/26 04:16:32;;;;;;;33.63;11.15;;;;;;;6.30;100.00;99055.66;5008669;28;20380;-55
2022/03/26 04:18:58;;;;;;;29.30;9.05;;;;;;;6.70;100.00;99047.56;5007972;28;20026;-57
2022/03/26 04:21:24;;;;;;;28.52;8.75;;;;;;;6.45;100.00;99046.03;5001750;28;20050;-54
2022/03/26 04:23:49;;;;;;;32.55;11.32;;;;;;;6.28;100.00;99059.13;5002484;28;20049;-53
2022/03/26 04:26:15;;;;;;;32.40;9.38;;;;;;;6.63;100.00;99061.47;5003117;28;20045;-54
2022/03/26 04:28:40;;;;;;;25.63;8.48;;;;;;;6.22;100.00;99061.78;5007555;28;20022;-54
2022/03/26 04:31:05;;;;;;;35.53;9.70;;;;;;;6.18;100.00;99066.97;5010156;28;20030;-56
2022/03/26 04:33:30;;;;;;;34.17;10.85;;;;;;;5.90;100.00;99067.94;5006115;28;20101;-55
2022/03/26 04:35:56;;;;;;;30.60;10.30;;;;;;;6.08;100.00;99067.03;5007908;28;20126;-54
2022/03/26 04:38:21;;;;;;;35.80;13.43;;;;;;;5.94;100.00;99077.44;5007222;28;20603;-55
2022/03/26 04:40:47;;;;;;;33.47;10.77;;;;;;;5.81;100.00;99084.41;5007520;28;20507;-56
2022/03/26 04:43:13;;;;;;;31.92;10.10;;;;;;;6.12;100.00;99084.25;5006149;28;20113;-54
2022/03/26 04:45:38;;;;;;;32.00;10.55;;;;;;;6.04;100.00;99080.88;5005857;28;20038;-55
2022/03/26 04:48:04;;;;;;;47.05;14.45;;;;;;;5.90;100.00;99084.38;5004727;28;20014;-55
2022/03/26 04:50:30;;;;;;;28.33;9.82;;;;;;;6.19;100.00;99078.19;5005315;28;20116;-56
2022/03/26 04:52:55;;;;;;;37.22;12.82;;;;;;;6.17;100.00;99088.53;5004921;28;20017;-55
2022/03/26 04:55:21;;;;;;;25.05;7.63;;;;;;;6.12;100.00;99092.03;5003712;28;20599;-54
2022/03/26 04:57:51;;;;;;;31.63;11.00;;;;;;;5.89;100.00;99092.13;5005029;28;20080;-55
2022/03/26 05:00:17;;;;;;;34.42;9.95;;;;;;;6.00;100.00;99092.13;4999146;28;20056;-55
2022/03/26 05:02:43;;;;;;;28.50;9.40;;;;;;;5.92;100.00;99092.97;5003508;28;20029;-56
2022/03/26 05:05:10;;;;;;;26.38;8.77;;;;;;;6.50;100.00;99090.94;5006532;28;20088;-55
2022/03/26 05:07:45;;;;;;;25.35;7.95;;;;;;;6.64;100.00;99099.50;5006275;28;20656;-56
2022/03/26 05:10:12;;;;;;;31.80;9.75;;;;;;;6.15;100.00;99099.81;5005205;28;20030;-56
2022/03/26 05:12:37;;;;;;;27.05;9.15;;;;;;;6.11;100.00;99098.97;5005399;28;20026;-56
2022/03/26 05:15:03;;;;;;;33.55;11.52;;;;;;;6.26;100.00;99098.00;5006437;28;20099;-54
2022/03/26 05:17:28;;;;;;;31.30;9.05;;;;;;;6.25;100.00;99101.47;5007229;28;20871;-56
2022/03/26 05:19:53;;;;;;;27.55;8.70;;;;;;;6.00;100.00;99100.75;5008503;28;20030;-57
2022/03/26 05:22:19;;;;;;;32.30;11.30;;;;;;;5.66;100.00;99105.16;5005049;28;20048;-56
2022/03/26 05:24:44;;;;;;;30.55;9.77;;;;;;;5.85;100.00;99103.38;5000105;28;20034;-54
2022/03/26 05:27:10;;;;;;;31.33;10.63;;;;;;;5.66;100.00;99105.16;5004700;28;20064;-57
2022/03/26 05:29:35;;;;;;;47.35;15.35;;;;;;;5.41;100.00;99108.69;5006185;28;20032;-53
2022/03/26 05:32:01;;;;;;;46.05;14.25;;;;;;;6.30;100.00;99102.28;5006725;28;20108;-55
2022/03/26 05:34:27;;;;;;;38.90;13.02;;;;;;;6.85;100.00;99108.81;5003349;28;20026;-54
2022/03/26 05:36:52;;;;;;;37.03;13.68;;;;;;;6.50;100.00;99101.31;5000145;28;20037;-55
2022/03/26 05:39:17;;;;;;;37.88;14.43;;;;;;;7.36;100.00;99107.50;5002901;28;20085;-55
2022/03/26 05:41:43;;;;;;;39.95;14.57;;;;;;;7.51;100.00;99109.94;5003558;28;20124;-55
2022/03/26 05:44:08;;;;;;;40.33;14.05;;;;;;;7.38;100.00;99109.19;5008194;28;20472;-56
2022/03/26 05:46:33;;;;;;;45.97;14.40;;;;;;;7.94;97.84;99118.97;5005365;28;20080;-54
2022/03/26 05:48:59;;;;;;;38.42;14.38;;;;;;;8.47;100.00;99109.59;5006313;28;20112;-54
2022/03/26 05:51:24;;;;;;;34.10;14.15;;;;;;;9.56;90.17;99119.94;5001136;28;20061;-55
2022/03/26 05:53:50;;;;;;;47.10;14.75;;;;;;;8.34;86.35;99118.44;4999451;28;20741;-54
2022/03/26 05:56:16;;;;;;;38.38;14.23;;;;;;;9.04;79.28;99116.50;5004059;28;20077;-56
2022/03/26 05:58:41;;;;;;;43.40;13.98;;;;;;;9.01;79.89;99125.25;5005146;28;20064;-54
2022/03/26 06:01:07;;;;;;;37.45;14.35;;;;;;;9.05;74.60;99129.50;5005104;28;20034;-55
2022/03/26 06:03:32;;;;;;;37.25;13.80;;;;;;;7.50;77.29;99135.03;5003998;28;20100;-55
2022/03/26 06:05:58;;;;;;;40.00;14.27;;;;;;;8.57;77.67;99132.00;5005325;28;20769;-54
2022/03/26 06:08:24;;;;;;;36.83;14.43;;;;;;;9.45;77.15;99136.63;5005615;28;20119;-54
2022/03/26 06:10:49;;;;;;;42.92;15.05;;;;;;;10.00;70.35;99133.84;5002807;28;20061;-55
2022/03/26 06:13:14;;;;;;;37.17;14.18;;;;;;;10.70;66.90;99128.00;5006280;28;20034;-55
2022/03/26 06:15:41;;;;;;;37.38;14.63;;;;;;;11.72;60.10;99127.13;5005893;28;20054;-55
2022/03/26 06:18:06;;;;;;;41.97;14.35;;;;;;;11.65;60.14;99130.81;5005807;28;20115;-55
2022/03/26 06:20:31;;;;;;;43.00;14.38;;;;;;;11.57;60.53;99130.16;5001209;28;20128;-54
2022/03/26 06:22:57;;;;;;;42.90;15.43;;;;;;;10.69;61.26;99134.09;5005334;28;20067;-54
2022/03/26 06:25:22;;;;;;;34.03;14.35;;;;;;;10.55;60.47;99135.28;5005465;28;20037;-55
2022/03/26 06:27:49;;;;;;;32.53;14.10;;;;;;;13.13;55.14;99133.38;5003393;28;20165;-55
2022/03/26 06:30:15;;;;;;;38.15;14.40;;;;;;;11.31;59.54;99138.69;5000105;28;20045;-54
2022/03/26 06:32:41;;;;;;;36.17;14.45;;;;;;;12.27;56.42;99134.31;5004519;28;20029;-55
2022/03/26 06:35:07;;;;;;;35.75;15.63;;;;;;;13.42;52.62;99135.91;5004059;28;20034;-54
2022/03/26 06:37:32;;;;;;;37.00;15.13;;;;;;;15.01;49.97;99132.59;5005224;28;20046;-54
2022/03/26 06:39:58;;;;;;;35.97;15.32;;;;;;;15.26;46.55;99129.81;5008854;28;20037;-56
2022/03/26 06:42:25;;;;;;;36.53;14.88;;;;;;;14.98;47.27;99137.97;5008028;28;20073;-55
2022/03/26 06:44:50;;;;;;;35.47;15.30;;;;;;;16.57;44.36;99137.16;5003822;28;20025;-55
2022/03/26 06:47:16;;;;;;;39.75;15.75;;;;;;;14.96;46.87;99139.81;5003154;28;20404;-56
2022/03/26 06:49:42;;;;;;;32.58;15.05;;;;;;;15.81;44.44;99137.13;5003925;28;20030;-54
2022/03/26 06:52:08;;;;;;;41.60;16.20;;;;;;;18.73;42.10;99145.44;5006341;28;20041;-54
2022/03/26 06:54:33;;;;;;;33.53;14.20;;;;;;;17.24;44.49;99143.59;5008172;28;20040;-54
2022/03/26 06:56:59;;;;;;;32.83;15.20;;;;;;;18.08;41.46;99140.19;5005401;28;20138;-54
2022/03/26 06:59:25;;;;;;;35.75;16.23;;;;;;;18.96;39.57;99144.13;5009975;28;20025;-55
2022/03/26 07:01:50;;;;;;;30.40;14.60;;;;;;;19.33;38.53;99142.00;5008074;28;20034;-54
2022/03/26 07:04:15;;;;;;;33.63;15.75;;;;;;;17.14;40.16;99148.44;5010130;28;20383;-55
2022/03/26 07:06:41;;;;;;;36.30;15.90;;;;;;;19.61;37.10;99143.00;5006943;28;20042;-55
2022/03/26 07:09:06;;;;;;;30.65;15.48;;;;;;;22.06;34.63;99148.47;5009060;28;20116;-56
2022/03/26 07:11:31;;;;;;;38.00;16.83;;;;;;;20.70;34.83;99146.06;5006074;28;20029;-54
2022/03/26 07:13:57;;;;;;;30.83;15.57;;;;;;;20.14;35.01;99151.31;5007621;28;20125;-54
2022/03/26 07:16:22;;;;;;;34.88;16.58;;;;;;;20.71;35.46;99155.69;5006844;28;20116;-56
2022/03/26 07:18:47;;;;;;;32.33;16.70;;;;;;;21.31;33.82;99151.78;5007814;28;20052;-55
2022/03/26 07:21:13;;;;;;;32.63;16.05;;;;;;;20.14;35.13;99146.84;5005150;28;20553;-55
2022/03/26 07:23:38;;;;;;;34.83;16.42;;;;;;;20.23;35.92;99154.22;5005171;28;20112;-55
2022/03/26 07:26:03;;;;;;;32.22;16.60;;;;;;;21.82;32.99;99153.69;5008190;28;20053;-56
2022/03/26 07:28:29;;;;;;;35.03;17.42;;;;;;;20.76;35.15;99156.25;5009595;28;20021;-58
2022/03/26 07:30:54;;;;;;;35.55;16.95;;;;;;;21.04;33.63;99154.47;5007323;28;20026;-56
2022/03/26 07:33:20;;;;;;;34.55;16.90;;;;;;;20.00;34.53;99149.53;5008032;28;20130;-56
2022/03/26 07:35:45;;;;;;;31.13;17.27;;;;;;;23.39;32.24;99142.41;5006293;28;20034;-56
2022/03/26 07:38:11;;;;;;;34.92;17.35;;;;;;;23.19;31.29;99144.75;5007213;28;20025;-57
2022/03/26 07:40:36;;;;;;;39.45;17.65;;;;;;;23.72;30.13;99140.78;5005023;28;20057;-55
2022/03/26 07:43:02;;;;;;;35.88;18.27;;;;;;;22.23;31.47;99134.84;5008344;28;20057;-58
2022/03/26 07:45:28;;;;;;;31.30;18.05;;;;;;;25.61;29.29;99138.88;5006325;28;20088;-55
2022/03/26 07:47:53;;;;;;;34.17;17.80;;;;;;;27.50;26.11;99140.84;5006893;28;20117;-57
2022/03/26 07:50:18;;;;;;;34.80;17.52;;;;;;;25.83;27.62;99140.56;5000847;28;20488;-57
2022/03/26 07:52:44;;;;;;;33.53;17.65;;;;;;;24.79;29.24;99148.31;5007801;28;20033;-56
2022/03/26 07:55:10;;;;;;;34.40;18.92;;;;;;;25.74;28.25;99144.88;5010102;28;20412;-56
2022/03/26 07:57:36;;;;;;;34.70;18.65;;;;;;;26.80;27.19;99147.28;5005427;28;20022;-55
2022/03/26 08:00:03;;;;;;;35.95;18.67;;;;;;;24.11;29.86;99152.00;5006932;28;20571;-57
2022/03/26 08:02:28;;;;;;;34.00;18.38;;;;;;;23.81;30.45;99150.78;4999855;28;20042;-58
2022/03/26 08:04:53;;;;;;;36.03;18.95;;;;;;;24.51;29.21;99154.16;5005910;28;20037;-58
2022/03/26 08:07:21;;;;;;;34.03;19.08;;;;;;;22.20;31.29;99145.66;5005165;28;20041;-57
2022/03/26 08:09:46;;;;;;;33.35;19.35;;;;;;;25.87;27.78;99139.31;5007015;28;20503;-55
2022/03/26 08:12:12;;;;;;;34.40;17.92;;;;;;;24.54;29.62;99137.97;5006513;28;20062;-56
2022/03/26 08:14:37;;;;;;;34.63;18.38;;;;;;;27.57;26.17;99134.91;5006908;28;20769;-56
2022/03/26 08:17:03;;;;;;;35.80;18.95;;;;;;;26.18;27.74;99136.69;5006489;28;20037;-57
2022/03/26 08:19:28;;;;;;;36.78;19.05;;;;;;;25.10;27.96;99148.44;5005594;28;20149;-57
2022/03/26 08:21:54;;;;;;;38.50;19.63;;;;;;;26.13;27.07;99144.25;5004236;28;20073;-56
2022/03/26 08:24:19;;;;;;;29.85;18.70;;;;;;;26.92;26.44;99147.03;5007301;28;20052;-55
2022/03/26 08:26:45;;;;;;;34.25;18.60;;;;;;;27.17;27.39;99150.16;5004005;28;20385;-57
2022/03/26 08:29:10;;;;;;;39.92;20.30;;;;;;;24.79;29.11;99148.31;5006607;28;20014;-57
2022/03/26 08:31:35;;;;;;;32.80;18.45;;;;;;;27.76;25.73;99148.28;5007874;28;20680;-56
2022/03/26 08:34:01;;;;;;;32.20;18.20;;;;;;;27.39;26.33;99154.41;5004336;28;20022;-55
2022/03/26 08:36:27;;;;;;;36.22;18.27;;;;;;;26.44;26.55;99149.56;5005758;28;20049;-55
2022/03/26 08:38:52;;;;;;;32.85;18.63;;;;;;;25.95;27.09;99158.25;5007125;28;20114;-54
2022/03/26 08:41:20;;;;;;;31.67;18.55;;;;;;;26.01;27.28;99164.03;5006376;28;20037;-56
2022/03/26 08:43:48;;;;;;;33.97;18.58;;;;;;;28.60;25.07;99159.97;5004308;28;20025;-56
2022/03/26 08:46:13;;;;;;;33.92;19.92;;;;;;;26.21;26.94;99168.50;5004868;28;20088;-57
2022/03/26 08:48:39;;;;;;;35.97;20.42;;;;;;;27.15;26.22;99156.63;5009087;28;20022;-55
2022/03/26 08:51:04;;;;;;;39.65;20.13;;;;;;;25.99;26.99;99169.53;5002975;28;20104;-55
2022/03/26 08:53:30;;;;;;;39.47;19.35;;;;;;;27.28;26.40;99162.59;5009710;28;20060;-55
2022/03/26 08:55:56;;;;;;;39.83;19.83;;;;;;;27.30;25.54;99160.63;5003490;28;20179;-57
2022/03/26 08:58:22;;;;;;;43.28;20.95;;;;;;;24.04;28.91;99163.16;5006648;28;20125;-55
2022/03/26 09:00:49;;;;;;;36.30;19.88;;;;;;;26.47;26.60;99166.22;5005730;28;20121;-56
2022/03/26 09:03:17;;;;;;;33.58;17.73;;;;;;;26.66;26.72;99165.44;5006078;28;20080;-55
2022/03/26 09:05:43;;;;;;;37.92;21.02;;;;;;;24.09;29.29;99169.94;5006650;28;20112;-57
2022/03/26 09:08:08;;;;;;;34.10;21.35;;;;;;;25.67;27.72;99169.56;5007718;28;20113;-54
2022/03/26 09:10:36;;;;;;;43.67;21.73;;;;;;;23.80;29.72;99175.69;5000508;28;20034;-56
2022/03/26 09:13:02;;;;;;;36.35;20.65;;;;;;;25.47;27.57;99174.78;5004344;28;20057;-54
2022/03/26 09:15:28;;;;;;;40.35;21.77;;;;;;;25.58;26.83;99166.72;4973929;28;20030;-57
2022/03/26 09:17:53;;;;;;;37.65;21.20;;;;;;;27.07;26.54;99162.69;5003414;28;20034;-55
2022/03/26 09:20:18;;;;;;;37.20;19.63;;;;;;;24.01;28.32;99166.03;5003471;28;20026;-55
2022/03/26 09:22:44;;;;;;;37.90;19.40;;;;;;;24.30;28.26;99168.25;5004524;28;20625;-55
2022/03/26 09:25:10;;;;;;;36.42;19.20;;;;;;;24.63;27.04;99163.88;5004666;28;20037;-55
2022/03/26 09:27:35;;;;;;;40.28;20.13;;;;;;;22.87;29.42;99169.25;5003726;28;20033;-54
2022/03/26 09:30:01;;;;;;;41.13;20.73;;;;;;;20.59;31.85;99166.13;5006034;28;20021;-56
2022/03/26 09:32:26;;;;;;;43.97;21.52;;;;;;;21.66;31.36;99168.00;5003407;28;20042;-54
2022/03/26 09:34:51;;;;;;;42.13;20.05;;;;;;;24.95;27.96;99160.41;5008290;28;20018;-55
2022/03/26 09:37:17;;;;;;;36.15;19.02;;;;;;;23.32;29.14;99165.13;5007217;28;20527;-54
2022/03/26 09:39:43;;;;;;;40.42;19.92;;;;;;;21.62;30.45;99171.00;5006220;28;20687;-55
2022/03/26 09:42:09;;;;;;;36.08;19.05;;;;;;;21.67;31.72;99164.41;5004650;28;20042;-55
2022/03/26 09:44:37;;;;;;;39.97;18.80;;;;;;;22.05;30.63;99168.84;5002308;28;20036;-55
2022/03/26 09:47:07;;;;;;;39.08;18.60;;;;;;;23.39;30.42;99167.22;5001589;28;20034;-56
2022/03/26 09:49:33;;;;;;;39.95;18.90;;;;;;;22.95;29.92;99162.53;5003356;28;20025;-56
2022/03/26 09:51:59;;;;;;;34.38;17.02;;;;;;;22.56;31.07;99156.50;5000573;28;20042;-54
2022/03/26 09:54:25;;;;;;;35.80;18.98;;;;;;;23.68;28.93;99157.00;5006488;28;20026;-56
2022/03/26 09:56:50;;;;;;;42.00;19.35;;;;;;;23.13;29.27;99155.88;5004767;28;20576;-56
2022/03/26 09:59:21;;;;;;;36.92;17.80;;;;;;;26.00;26.72;99159.69;5005766;28;20025;-55
2022/03/26 10:01:46;;;;;;;40.15;18.35;;;;;;;25.81;26.94;99155.88;4997827;28;20065;-55
2022/03/26 10:04:16;;;;;;;34.00;17.30;;;;;;;25.85;26.78;99157.31;5001130;28;20391;-56
2022/03/26 10:06:56;;;;;;;43.35;18.33;;;;;;;24.84;27.44;99155.09;4995031;28;20040;-55
2022/03/26 10:09:33;;;;;;;41.92;19.30;;;;;;;26.08;26.67;99158.03;4996831;28;20030;-55
2022/03/26 10:12:03;;;;;;;43.03;18.85;;;;;;;27.06;25.98;99153.81;4996472;28;20097;-56
2022/03/26 10:14:52;;;;;;;35.78;17.90;;;;;;;24.46;28.25;99145.69;4997190;28;20516;-56
2022/03/26 10:17:21;;;;;;;32.65;16.95;;;;;;;24.64;27.80;99149.56;5000386;28;20711;-55
2022/03/26 10:19:52;;;;;;;30.55;15.73;;;;;;;27.28;26.32;99136.66;5002683;28;20040;-57
2022/03/26 10:22:37;;;;;;;31.70;16.92;;;;;;;25.20;27.09;99141.38;4995940;28;20031;-57
2022/03/26 10:25:13;;;;;;;39.03;18.67;;;;;;;24.90;27.65;99141.25;4999543;28;20040;-56
2022/03/26 10:27:45;;;;;;;40.33;19.25;;;;;;;24.93;27.11;99135.66;5000819;28;20045;-57
2022/03/26 10:30:14;;;;;;;42.60;19.77;;;;;;;22.82;29.40;99136.81;4998538;28;20050;-56
2022/03/26 10:32:43;;;;;;;35.70;17.85;;;;;;;25.29;26.90;99128.25;4998544;28;20028;-55
2022/03/26 10:35:19;;;;;;;39.47;17.73;;;;;;;24.62;28.29;99130.16;4996171;28;20030;-58
2022/03/26 10:37:55;;;;;;;35.28;16.75;;;;;;;24.07;28.88;99130.06;5000927;28;20033;-55
2022/03/26 10:40:22;;;;;;;32.53;16.63;;;;;;;25.66;27.89;99127.78;4997450;28;20151;-56
2022/03/26 10:42:56;;;;;;;33.15;16.95;;;;;;;24.64;28.47;99125.56;4999436;28;20037;-56
2022/03/26 10:45:22;;;;;;;35.10;17.25;;;;;;;23.50;29.46;99120.28;4998532;28;20400;-55
2022/03/26 10:47:50;;;;;;;38.97;17.10;;;;;;;24.50;28.02;99123.13;5001096;28;20544;-56
2022/03/26 10:50:16;;;;;;;43.83;16.67;;;;;;;22.77;30.40;99130.97;4996786;28;20030;-57
2022/03/26 10:52:42;;;;;;;34.97;15.50;;;;;;;24.65;27.96;99119.25;5001747;28;20020;-56
2022/03/26 10:55:18;;;;;;;41.83;15.50;;;;;;;25.34;27.97;99110.84;5002507;28;20049;-56
2022/03/26 10:57:46;;;;;;;36.03;15.38;;;;;;;23.82;28.60;99112.47;4997070;28;20029;-56
2022/03/26 11:00:13;;;;;;;35.33;13.73;;;;;;;24.92;28.04;99107.28;5001030;28;20673;-55
2022/03/26 11:02:39;;;;;;;24.40;11.98;;;;;;;24.48;25.86;99112.56;5002700;28;20040;-56
2022/03/26 11:05:05;;;;;;;28.00;11.30;;;;;;;24.32;25.36;99101.47;4993419;28;20033;-57
2022/03/26 11:07:32;;;;;;;37.55;13.07;;;;;;;23.46;26.23;99107.19;4997452;28;20043;-57
2022/03/26 11:09:58;;;;;;;31.85;13.52;;;;;;;22.84;27.28;99100.31;4998842;28;20040;-56
2022/03/26 11:12:25;;;;;;;29.42;12.18;;;;;;;21.05;29.04;99108.44;5000326;28;20606;-57
2022/03/26 11:14:53;;;;;;;30.65;11.73;;;;;;;23.94;27.61;99102.69;5002210;28;20030;-56
2022/03/26 11:17:34;;;;;;;34.70;12.48;;;;;;;21.90;28.60;99100.88;4997057;28;20463;-56